Alto Crest, New Mexico
Current Conditions -  °F | °C
As of 11:15 AM on Thursday 30 Oct 2014 (Local Time) from KSRR Reporting Station
Clear Clear  
Wind Chill: 64°   Ceiling: Unl
Heat Index: 64°   Visibility: 10mi
Dew Point: 25°   Wind: 13mph
Humidity: 22%   Direction: 150°SSE
Pressure: 30.4"   Gusts: 20mph
Location:  33.3909°N, 105.634°W
Report Text: KSRR 301715Z AUTO 15011G17KT 10SM CLR 18/M04 A3040 RMK AO2
Loading
Personal Weather Stations






























Interactive Weather Map
Tropical Storm Tracking
New forecast layout! Learn more

10-Day Weather Forecast

Advertisements
Track Severe Weather on mobile